• Join FlightAware (Why Join?)
  • Login
  • US Flag 
12:53AM EDT


 

Airport Tracker/Info


-or-


 

Live Flight TrackerFlight Track Log ✈ C-GTAF ✈ 02-Aug-2013 ✈ CYAV - CYQK

Flight Track Log - Related Links

Times and Time Zones

All times are in EDT time to prevent confusion due to time zone crossing. See the C-GTAF flight status page for this flight to view local times or setup timezone preferences in your user account.

Time Position Orientation Groundspeed Altitude Reporting Facility
EDT Latitude Longitude Course Direction KTS MPH feet Rate Location/Type
02:47PM 50.0667 -96.9667 117° Southeast 130 150 3,000  Level Winnipeg Center
02:48PM 50.0333 -96.9167 136° Southeast 130 150 4,100 1,080 Climbing Winnipeg Center
02:49PM 50.0333 -96.8667 90° East 120 138 5,200 1,200 Climbing Winnipeg Center
02:50PM 50.0333 -96.8167 90° East 120 138 6,500 900 Climbing Winnipeg Center
02:51PM 50.0181 -96.6085 101° East  Level Estimated
02:51PM 50.0167 -96.7500 111° Southeast 140 161 7,000  Level Winnipeg Center
02:52PM 50.0088 -96.5386 102° East  Level FlightAware Approximate
02:52PM 50.0167 -96.6833 90° East 180 207 7,000  Level Winnipeg Center
02:53PM 50.0000 -96.6000 107° East 190 219 7,000  Level Winnipeg Center
02:54PM 50.0000 -96.5167 90° East 190 219 7,000  Level Winnipeg Center
02:55PM 49.9833 -96.4500 111° Southeast 190 219 7,000  Level Winnipeg Center
02:56PM 49.9833 -96.3667 90° East 190 219 7,000  Level Winnipeg Center
02:57PM 49.9833 -96.2833 90° East 180 207 7,000  Level Winnipeg Center
02:58PM 49.9667 -96.2167 111° Southeast 190 219 7,000  Level Winnipeg Center
02:59PM 49.9667 -96.1000 90° East 190 219 7,100  Climbing Winnipeg Center
03:00PM 49.9500 -96.0500 117° Southeast 190 219 7,000  Descending Winnipeg Center
03:01PM 49.9333 -95.9500 104° East 190 219 7,100  Climbing Winnipeg Center
03:02PM 49.9333 -95.8667 90° East 190 219 7,000 -60 Descending Winnipeg Center
03:03PM 49.9167 -95.8000 111° Southeast 190 219 7,000  Level Winnipeg Center
03:04PM 49.9167 -95.7167 90° East 190 219 7,000  Level Winnipeg Center
03:05PM 49.9000 -95.6333 107° East 190 219 7,000  Level Winnipeg Center
03:06PM 49.9000 -95.5667 90° East 190 219 7,100  Climbing Winnipeg Center
03:07PM 49.8833 -95.4833 107° East 190 219 7,000 -60 Descending Winnipeg Center
03:08PM 49.8833 -95.3833 90° East 190 219 7,000  Level Winnipeg Center
03:09PM 49.8667 -95.3000 107° East 190 219 7,000  Level Winnipeg Center
03:10PM 49.8667 -95.2500 90° East 180 207 7,000  Level Winnipeg Center
03:11PM 49.8667 -95.1500 90° East 180 207 7,000 -60 Level Winnipeg Center
03:12PM 49.8500 -95.1000 117° Southeast 170 196 6,900 -300 Descending Winnipeg Center
03:13PM 49.8500 -95.0167 90° East 180 207 6,400 -480 Descending Winnipeg Center
03:14PM 49.8667 -94.9333 73° East 180 207 6,000 -240 Descending Winnipeg Center
03:15PM 49.8667 -94.8667 90° East 180 207 6,000 -120 Level Winnipeg Center
03:16PM 49.8500 -94.7833 107° East 170 196 5,800 -480 Descending Winnipeg Center
03:17PM 49.8333 -94.7167 111° Southeast 180 207 5,100 -720 Descending Winnipeg Center
03:19PM 49.8116 -94.6461 98° East  Level FlightAware Approximate
03:26PM 49.7883 -94.3631 98° East  Level Estimated
03:27PM 49.7883 -94.3631 98° East  Level Estimated
03:28PM 49.7883 -94.3631 98° East  Level Estimated
03:29PM 49.7883 -94.3631 98° East  Level Estimated
03:30PM 49.7883 -94.3631 98° East  Level Estimated